Time;durP1;ratioP1;P1;durP2;ratioP2;P2;SDS_P1;SDS_P2;PMS_P1;PMS_P2;Temp;Humidity;BMP_temperature;BMP_pressure;BME280_temperature;BME280_humidity;BME280_pressure;Samples;Min_cycle;Max_cycle;Signal;HPM_P1;HPM_P2
2021/09/20 00:01:41;;;;;;;2.83;0.50;;;;;;;;;;5050298;28;20029;-86
2021/09/20 00:04:07;;;;;;;0.10;0.10;;;;;;;;;;5045614;28;20025;-87
2021/09/20 00:06:33;;;;;;;0.38;0.38;;;;;;;;;;5064061;28;20138;-86
2021/09/20 00:08:59;;;;;;;0.30;0.30;;;;;;;;;;5059133;28;20039;-85
2021/09/20 00:11:25;;;;;;;0.10;0.10;;;;;;;;;;5062865;28;20283;-86
2021/09/20 00:13:51;;;;;;;0.20;0.20;;;;;;;;;;5061658;28;20048;-83
2021/09/20 00:16:18;;;;;;;3.00;1.60;;;;;;;;;;5060972;28;20131;-83
2021/09/20 00:18:44;;;;;;;4.00;0.98;;;;;;;;;;5064044;28;20381;-82
2021/09/20 00:21:10;;;;;;;0.27;0.27;;;;;;;;;;5060086;28;20538;-83
2021/09/20 00:23:36;;;;;;;0.22;0.22;;;;;;;;;;5060951;28;21097;-83
2021/09/20 00:26:02;;;;;;;0.10;0.10;;;;;;;;;;5062727;28;20045;-86
2021/09/20 00:28:28;;;;;;;1.93;0.67;;;;;;;;;;5060508;28;20066;-87
2021/09/20 00:30:54;;;;;;;0.15;0.15;;;;;;;;;;5057063;28;20040;-87
2021/09/20 00:33:20;;;;;;;0.10;0.10;;;;;;;;;;5055846;28;20082;-85
2021/09/20 00:35:46;;;;;;;0.10;0.10;;;;;;;;;;5058946;28;20059;-85
2021/09/20 00:38:13;;;;;;;0.20;0.20;;;;;;;;;;5059638;28;20352;-83
2021/09/20 00:40:39;;;;;;;0.63;0.63;;;;;;;;;;5060853;28;20044;-83
2021/09/20 00:43:05;;;;;;;0.20;0.20;;;;;;;;;;5059351;28;20535;-84
2021/09/20 00:45:31;;;;;;;0.40;0.40;;;;;;;;;;5060601;28;20032;-85
2021/09/20 00:47:57;;;;;;;0.38;0.38;;;;;;;;;;5059000;28;20290;-85
2021/09/20 00:50:23;;;;;;;0.30;0.30;;;;;;;;;;5061318;28;20093;-85
2021/09/20 00:52:49;;;;;;;0.10;0.10;;;;;;;;;;5042961;28;20132;-85
2021/09/20 00:55:16;;;;;;;0.10;0.10;;;;;;;;;;5060703;28;20257;-85
2021/09/20 00:57:45;;;;;;;0.20;0.20;;;;;;;;;;5061130;28;20035;-84
2021/09/20 01:00:12;;;;;;;0.50;0.50;;;;;;;;;;5042289;28;20040;-86
2021/09/20 01:02:38;;;;;;;0.10;0.10;;;;;;;;;;5058844;28;20034;-84
2021/09/20 01:05:06;;;;;;;0.30;0.30;;;;;;;;;;5044015;28;20576;-85
2021/09/20 01:07:32;;;;;;;0.00;0.00;;;;;;;;;;5043646;28;20276;-85
2021/09/20 01:09:58;;;;;;;0.67;0.67;;;;;;;;;;5043853;28;20060;-85
2021/09/20 01:12:24;;;;;;;0.50;0.50;;;;;;;;;;5059028;28;20028;-84
2021/09/20 01:14:50;;;;;;;0.10;0.10;;;;;;;;;;5038911;28;20049;-85
2021/09/20 01:17:16;;;;;;;0.20;0.20;;;;;;;;;;5044653;28;20033;-84
2021/09/20 01:19:42;;;;;;;0.00;0.00;;;;;;;;;;5059521;28;20031;-84
2021/09/20 01:22:13;;;;;;;0.00;0.00;;;;;;;;;;5061049;28;20115;-84
2021/09/20 01:24:39;;;;;;;0.10;0.10;;;;;;;;;;5061002;28;20032;-86
2021/09/20 01:27:05;;;;;;;0.07;0.07;;;;;;;;;;5060749;28;20028;-86
2021/09/20 01:29:34;;;;;;;0.20;0.20;;;;;;;;;;5060357;28;20031;-87
2021/09/20 01:32:00;;;;;;;0.10;0.10;;;;;;;;;;5058982;28;20040;-87
2021/09/20 01:34:26;;;;;;;1.65;0.98;;;;;;;;;;5058101;28;20102;-86
2021/09/20 01:36:53;;;;;;;0.43;0.38;;;;;;;;;;5057377;28;20525;-86
2021/09/20 01:39:20;;;;;;;4.78;0.65;;;;;;;;;;5057232;28;20094;-85
2021/09/20 01:41:47;;;;;;;0.13;0.13;;;;;;;;;;5041367;28;20519;-85
2021/09/20 01:44:13;;;;;;;0.00;0.00;;;;;;;;;;5040086;28;20249;-86
2021/09/20 01:46:42;;;;;;;0.22;0.22;;;;;;;;;;5059785;28;20033;-85
2021/09/20 01:49:08;;;;;;;0.00;0.00;;;;;;;;;;5060867;28;20125;-86
2021/09/20 01:51:34;;;;;;;0.30;0.30;;;;;;;;;;5060056;28;20056;-86
2021/09/20 01:54:00;;;;;;;1.13;0.88;;;;;;;;;;5059834;28;20094;-87
2021/09/20 01:56:26;;;;;;;1.17;0.73;;;;;;;;;;5059296;28;20040;-85
2021/09/20 01:58:52;;;;;;;0.10;0.10;;;;;;;;;;5047579;28;20550;-89
2021/09/20 02:01:18;;;;;;;0.10;0.10;;;;;;;;;;5059429;28;20029;-88
2021/09/20 02:03:44;;;;;;;0.10;0.10;;;;;;;;;;5043989;28;20055;-87
2021/09/20 02:06:10;;;;;;;0.10;0.10;;;;;;;;;;5059363;28;20295;-87
2021/09/20 02:08:36;;;;;;;0.10;0.10;;;;;;;;;;5060698;28;20058;-87
2021/09/20 02:11:03;;;;;;;0.40;0.40;;;;;;;;;;5060979;28;20437;-83
2021/09/20 02:13:30;;;;;;;0.00;0.00;;;;;;;;;;5058911;28;20036;-83
2021/09/20 02:15:56;;;;;;;0.08;0.08;;;;;;;;;;5043099;28;20059;-83
2021/09/20 02:18:22;;;;;;;0.63;0.53;;;;;;;;;;5041883;28;20032;-85
2021/09/20 02:20:48;;;;;;;8.80;2.23;;;;;;;;;;5059332;28;20036;-84
2021/09/20 02:23:14;;;;;;;0.20;0.20;;;;;;;;;;5057918;28;20078;-83
2021/09/20 02:25:40;;;;;;;0.10;0.10;;;;;;;;;;5058702;28;20052;-84
2021/09/20 02:28:07;;;;;;;0.10;0.10;;;;;;;;;;5057968;28;20033;-83
2021/09/20 02:30:33;;;;;;;0.55;0.55;;;;;;;;;;5060657;28;20109;-84
2021/09/20 02:32:59;;;;;;;0.17;0.17;;;;;;;;;;5058860;28;20032;-84
2021/09/20 02:35:25;;;;;;;0.10;0.10;;;;;;;;;;5053399;28;20046;-84
2021/09/20 02:37:51;;;;;;;0.10;0.10;;;;;;;;;;5060765;28;20033;-84
2021/09/20 02:40:17;;;;;;;0.00;0.00;;;;;;;;;;5058241;28;20687;-83
2021/09/20 02:42:43;;;;;;;0.03;0.03;;;;;;;;;;5061303;28;20032;-84
2021/09/20 02:45:09;;;;;;;0.17;0.17;;;;;;;;;;5061494;28;20028;-83
2021/09/20 02:47:35;;;;;;;0.10;0.10;;;;;;;;;;5059736;28;20694;-84
2021/09/20 02:50:02;;;;;;;0.00;0.00;;;;;;;;;;5059329;28;20634;-84
2021/09/20 02:52:28;;;;;;;0.00;0.00;;;;;;;;;;5055209;28;20083;-84
2021/09/20 02:54:54;;;;;;;1.52;0.73;;;;;;;;;;5058338;28;20044;-84
2021/09/20 02:57:20;;;;;;;0.20;0.20;;;;;;;;;;5040494;28;20039;-85
2021/09/20 02:59:46;;;;;;;0.13;0.13;;;;;;;;;;5059473;28;20033;-85
2021/09/20 03:02:12;;;;;;;0.10;0.10;;;;;;;;;;5058198;28;20286;-85
2021/09/20 03:04:38;;;;;;;2.77;0.30;;;;;;;;;;5057766;28;20073;-86
2021/09/20 03:07:05;;;;;;;0.13;0.13;;;;;;;;;;5059932;28;20445;-86
2021/09/20 03:09:31;;;;;;;;;;;;;;;;;;5062237;28;20021;-86
2021/09/20 03:11:57;;;;;;;0.22;0.22;;;;;;;;;;5040117;28;19965;-86
2021/09/20 03:14:23;;;;;;;0.47;0.47;;;;;;;;;;5057418;28;20550;-84
2021/09/20 03:16:49;;;;;;;0.22;0.20;;;;;;;;;;5057513;28;20502;-83
2021/09/20 03:19:16;;;;;;;0.20;0.20;;;;;;;;;;5041234;28;20044;-83
2021/09/20 03:21:42;;;;;;;0.70;0.70;;;;;;;;;;5059719;28;20029;-83
2021/09/20 03:24:10;;;;;;;0.37;0.30;;;;;;;;;;5057474;28;20044;-83
2021/09/20 03:26:36;;;;;;;0.22;0.22;;;;;;;;;;5057670;28;20028;-82
2021/09/20 03:29:02;;;;;;;0.53;0.53;;;;;;;;;;5058582;28;20040;-83
2021/09/20 03:31:28;;;;;;;0.23;0.23;;;;;;;;;;5039608;28;20078;-83
2021/09/20 03:33:54;;;;;;;0.10;0.10;;;;;;;;;;5059871;28;20091;-87
2021/09/20 03:36:20;;;;;;;0.20;0.20;;;;;;;;;;5057878;28;20279;-86
2021/09/20 03:38:46;;;;;;;3.53;1.40;;;;;;;;;;5057267;28;20028;-86
2021/09/20 03:41:12;;;;;;;0.53;0.53;;;;;;;;;;5039405;28;20298;-86
2021/09/20 03:43:38;;;;;;;0.00;0.00;;;;;;;;;;5041744;28;20560;-86
2021/09/20 03:46:04;;;;;;;0.00;0.00;;;;;;;;;;5058144;28;20830;-87
2021/09/20 03:48:30;;;;;;;0.13;0.13;;;;;;;;;;5063841;28;20033;-87
2021/09/20 03:50:56;;;;;;;0.10;0.10;;;;;;;;;;5043131;28;20094;-85
2021/09/20 03:53:22;;;;;;;0.00;0.00;;;;;;;;;;5044823;28;20271;-83
2021/09/20 03:55:48;;;;;;;0.03;0.03;;;;;;;;;;5062434;28;20048;-83
2021/09/20 03:58:15;;;;;;;0.00;0.00;;;;;;;;;;5061188;28;20029;-86
2021/09/20 04:00:41;;;;;;;0.80;0.80;;;;;;;;;;5046453;28;20036;-90
2021/09/20 04:03:09;;;;;;;0.10;0.10;;;;;;;;;;5060231;28;20270;-84
2021/09/20 04:05:35;;;;;;;0.40;0.40;;;;;;;;;;5063077;28;20916;-85
2021/09/20 04:08:01;;;;;;;1.17;1.05;;;;;;;;;;5062123;28;20086;-87
2021/09/20 04:10:27;;;;;;;0.10;0.10;;;;;;;;;;5063254;28;20024;-87
2021/09/20 04:12:53;;;;;;;13.07;0.90;;;;;;;;;;5045800;28;20036;-86
2021/09/20 04:15:19;;;;;;;0.10;0.10;;;;;;;;;;5060529;28;20066;-85
2021/09/20 04:17:46;;;;;;;0.20;0.20;;;;;;;;;;5059819;28;20026;-84
2021/09/20 04:20:12;;;;;;;0.10;0.10;;;;;;;;;;5060354;28;20063;-83
2021/09/20 04:22:38;;;;;;;2.53;1.08;;;;;;;;;;5062037;28;20122;-82
2021/09/20 04:25:05;;;;;;;0.10;0.10;;;;;;;;;;5044267;28;20078;-84
2021/09/20 04:27:31;;;;;;;2.10;1.45;;;;;;;;;;5062204;28;20267;-85
2021/09/20 04:29:57;;;;;;;0.17;0.17;;;;;;;;;;5059568;28;20539;-84
2021/09/20 04:32:24;;;;;;;0.20;0.20;;;;;;;;;;5061536;28;20021;-83
2021/09/20 04:34:50;;;;;;;0.10;0.10;;;;;;;;;;5061492;28;20912;-83
2021/09/20 04:37:17;;;;;;;1.27;1.17;;;;;;;;;;5059375;28;20032;-83
2021/09/20 04:39:43;;;;;;;0.13;0.13;;;;;;;;;;5061763;28;20060;-82
2021/09/20 04:42:09;;;;;;;3.20;1.00;;;;;;;;;;5063898;28;20033;-86
2021/09/20 04:44:35;;;;;;;0.10;0.10;;;;;;;;;;5043039;28;20024;-85
2021/09/20 04:47:01;;;;;;;0.13;0.13;;;;;;;;;;5049683;28;20036;-86
2021/09/20 04:49:27;;;;;;;0.10;0.10;;;;;;;;;;5060866;28;20312;-86
2021/09/20 04:51:53;;;;;;;0.10;0.10;;;;;;;;;;5063264;28;20082;-86
2021/09/20 04:54:19;;;;;;;0.30;0.30;;;;;;;;;;5061084;28;20071;-87
2021/09/20 04:56:46;;;;;;;0.88;0.65;;;;;;;;;;5062587;28;20712;-87
2021/09/20 04:59:12;;;;;;;0.50;0.50;;;;;;;;;;5061043;28;20032;-87
2021/09/20 05:01:38;;;;;;;0.30;0.23;;;;;;;;;;5060957;28;20052;-87
2021/09/20 05:04:04;;;;;;;0.20;0.20;;;;;;;;;;5060548;28;20387;-87
2021/09/20 05:06:31;;;;;;;0.22;0.22;;;;;;;;;;5065042;28;20040;-88
2021/09/20 05:08:57;;;;;;;0.38;0.38;;;;;;;;;;5044772;28;20100;-87
2021/09/20 05:11:23;;;;;;;0.10;0.10;;;;;;;;;;5039371;28;20168;-86
2021/09/20 05:13:49;;;;;;;0.65;0.65;;;;;;;;;;5051591;28;20035;-87
2021/09/20 05:16:15;;;;;;;0.10;0.10;;;;;;;;;;5066868;28;20036;-87
2021/09/20 05:18:41;;;;;;;1.90;0.90;;;;;;;;;;5054290;28;20055;-87
2021/09/20 05:21:07;;;;;;;0.30;0.30;;;;;;;;;;5060965;28;20032;-88
2021/09/20 05:23:33;;;;;;;0.20;0.17;;;;;;;;;;5063903;28;20032;-89
2021/09/20 05:26:00;;;;;;;0.10;0.10;;;;;;;;;;5063669;28;20035;-88
2021/09/20 05:28:26;;;;;;;0.65;0.20;;;;;;;;;;5067623;28;20505;-89
2021/09/20 05:30:52;;;;;;;0.10;0.10;;;;;;;;;;5067824;28;20025;-82
2021/09/20 05:33:18;;;;;;;1.03;0.40;;;;;;;;;;5056154;28;20033;-83
2021/09/20 05:35:44;;;;;;;0.10;0.10;;;;;;;;;;5038487;28;20460;-83
2021/09/20 05:38:12;;;;;;;2.03;0.70;;;;;;;;;;5062396;28;20063;-82
2021/09/20 05:40:38;;;;;;;0.20;0.20;;;;;;;;;;5065787;28;20107;-83
2021/09/20 05:43:04;;;;;;;0.05;0.05;;;;;;;;;;5055020;28;20021;-81
2021/09/20 05:45:30;;;;;;;0.20;0.20;;;;;;;;;;5063078;28;20035;-82
2021/09/20 05:47:56;;;;;;;0.10;0.10;;;;;;;;;;5057219;28;20333;-82
2021/09/20 05:50:23;;;;;;;0.20;0.20;;;;;;;;;;5051825;28;20029;-82
2021/09/20 05:52:49;;;;;;;0.10;0.10;;;;;;;;;;5059241;28;20295;-82
2021/09/20 05:55:15;;;;;;;0.00;0.00;;;;;;;;;;5061126;28;20560;-82
2021/09/20 05:57:41;;;;;;;0.20;0.20;;;;;;;;;;5048248;28;20056;-81
2021/09/20 06:00:10;;;;;;;0.10;0.10;;;;;;;;;;5056054;28;20048;-82
2021/09/20 06:02:36;;;;;;;0.22;0.22;;;;;;;;;;5057519;28;20077;-81
2021/09/20 06:05:02;;;;;;;0.10;0.10;;;;;;;;;;5057672;28;20035;-82
2021/09/20 06:07:28;;;;;;;5.60;0.53;;;;;;;;;;5062367;28;20035;-82
2021/09/20 06:09:54;;;;;;;0.17;0.10;;;;;;;;;;5058911;28;20354;-81
2021/09/20 06:12:20;;;;;;;0.00;0.00;;;;;;;;;;5047391;28;20094;-82
2021/09/20 06:14:46;;;;;;;0.03;0.03;;;;;;;;;;5052162;28;20286;-80
2021/09/20 06:17:12;;;;;;;0.55;0.30;;;;;;;;;;5058164;28;20040;-87
2021/09/20 06:19:38;;;;;;;0.47;0.40;;;;;;;;;;5061158;28;20024;-89
2021/09/20 06:22:04;;;;;;;0.20;0.20;;;;;;;;;;5060442;28;20051;-87
2021/09/20 06:24:31;;;;;;;0.20;0.20;;;;;;;;;;5058909;28;20048;-88
2021/09/20 06:26:57;;;;;;;0.10;0.10;;;;;;;;;;5052483;28;20037;-88
2021/09/20 06:29:23;;;;;;;0.05;0.05;;;;;;;;;;5033188;28;20036;-89
2021/09/20 06:31:49;;;;;;;2.27;0.30;;;;;;;;;;5063877;28;20046;-90
2021/09/20 06:34:15;;;;;;;0.17;0.17;;;;;;;;;;5059338;28;21068;-90
2021/09/20 06:36:41;;;;;;;0.15;0.15;;;;;;;;;;5033739;28;20048;-91
2021/09/20 06:39:08;;;;;;;0.10;0.10;;;;;;;;;;5056434;28;20635;-89
2021/09/20 06:41:35;;;;;;;0.10;0.10;;;;;;;;;;5055708;28;20272;-88
2021/09/20 06:44:03;;;;;;;0.10;0.10;;;;;;;;;;5054946;28;20530;-89
2021/09/20 06:46:30;;;;;;;0.00;0.00;;;;;;;;;;5055406;28;20850;-88
2021/09/20 06:48:57;;;;;;;0.43;0.43;;;;;;;;;;5064269;28;20021;-90
2021/09/20 06:51:23;;;;;;;0.25;0.25;;;;;;;;;;5063711;28;20513;-91
2021/09/20 06:53:50;;;;;;;0.10;0.10;;;;;;;;;;5063411;28;20359;-90
2021/09/20 06:56:16;;;;;;;0.22;0.10;;;;;;;;;;5059473;28;20071;-88
2021/09/20 06:58:42;;;;;;;0.08;0.08;;;;;;;;;;5046892;28;20029;-84
2021/09/20 07:01:08;;;;;;;0.20;0.20;;;;;;;;;;5059456;28;20032;-85
2021/09/20 07:03:35;;;;;;;0.00;0.00;;;;;;;;;;5058273;28;20032;-84
2021/09/20 07:06:01;;;;;;;0.20;0.20;;;;;;;;;;5057050;28;20075;-85
2021/09/20 07:08:27;;;;;;;0.00;0.00;;;;;;;;;;5056888;28;20042;-84
2021/09/20 07:10:53;;;;;;;0.17;0.17;;;;;;;;;;5058147;28;20025;-84
2021/09/20 07:13:19;;;;;;;1.70;0.30;;;;;;;;;;5060479;28;20706;-84
2021/09/20 07:15:45;;;;;;;0.47;0.30;;;;;;;;;;5059404;28;20114;-84
2021/09/20 07:18:12;;;;;;;0.00;0.00;;;;;;;;;;5056895;28;20033;-84
2021/09/20 07:20:38;;;;;;;0.10;0.10;;;;;;;;;;5057325;28;20037;-83
2021/09/20 07:23:04;;;;;;;0.08;0.08;;;;;;;;;;5059524;28;20096;-84
2021/09/20 07:25:30;;;;;;;0.00;0.00;;;;;;;;;;5064962;28;20492;-84
2021/09/20 07:27:56;;;;;;;0.10;0.10;;;;;;;;;;5063510;28;20075;-84
2021/09/20 07:30:23;;;;;;;0.08;0.08;;;;;;;;;;5060681;28;20031;-85
2021/09/20 07:32:50;;;;;;;0.00;0.00;;;;;;;;;;5061018;28;20127;-85
2021/09/20 07:35:17;;;;;;;0.15;0.15;;;;;;;;;;5060773;28;20743;-83
2021/09/20 07:37:48;;;;;;;0.00;0.00;;;;;;;;;;5063478;28;20036;-84
2021/09/20 07:40:15;;;;;;;0.50;0.30;;;;;;;;;;5061886;28;20083;-83
2021/09/20 07:42:40;;;;;;;;;;;;;;;;;;5063310;28;20036;-84
2021/09/20 07:45:08;;;;;;;0.00;0.00;;;;;;;;;;5043945;28;20695;-85
2021/09/20 07:47:34;;;;;;;0.10;0.10;;;;;;;;;;5060409;28;20033;-84
2021/09/20 07:50:00;;;;;;;0.20;0.20;;;;;;;;;;5061051;28;20033;-84
2021/09/20 07:52:26;;;;;;;0.30;0.30;;;;;;;;;;5064617;28;20513;-83
2021/09/20 07:54:53;;;;;;;1.93;0.63;;;;;;;;;;5062088;28;20071;-84
2021/09/20 07:57:19;;;;;;;0.13;0.13;;;;;;;;;;5060329;28;20287;-84
2021/09/20 07:59:45;;;;;;;0.10;0.10;;;;;;;;;;5060432;28;20025;-85
2021/09/20 08:02:11;;;;;;;0.20;0.20;;;;;;;;;;5060103;28;20716;-84
2021/09/20 08:04:37;;;;;;;0.00;0.00;;;;;;;;;;5046657;28;20032;-84
2021/09/20 08:07:04;;;;;;;0.10;0.10;;;;;;;;;;5062239;28;20038;-84
2021/09/20 08:09:30;;;;;;;0.00;0.00;;;;;;;;;;5060455;28;20028;-84
2021/09/20 08:11:56;;;;;;;0.25;0.25;;;;;;;;;;5060277;28;20032;-84
2021/09/20 08:14:22;;;;;;;0.00;0.00;;;;;;;;;;5059654;28;20039;-84
2021/09/20 08:16:48;;;;;;;0.00;0.00;;;;;;;;;;5061844;28;20028;-84
2021/09/20 08:19:14;;;;;;;0.13;0.13;;;;;;;;;;5062494;28;20405;-83
2021/09/20 08:21:40;;;;;;;5.03;0.73;;;;;;;;;;5061760;28;21123;-84
2021/09/20 08:24:06;;;;;;;0.00;0.00;;;;;;;;;;5059538;28;20178;-84
2021/09/20 08:26:33;;;;;;;0.00;0.00;;;;;;;;;;5059348;28;20028;-82
2021/09/20 08:28:59;;;;;;;0.10;0.10;;;;;;;;;;5059722;28;20397;-83
2021/09/20 08:31:25;;;;;;;0.03;0.03;;;;;;;;;;5063797;28;20045;-83
2021/09/20 08:33:51;;;;;;;0.00;0.00;;;;;;;;;;5061209;28;20266;-83
2021/09/20 08:36:18;;;;;;;0.00;0.00;;;;;;;;;;5059315;28;20067;-83
2021/09/20 08:38:44;;;;;;;0.20;0.20;;;;;;;;;;5058760;28;20036;-83
2021/09/20 08:41:10;;;;;;;0.10;0.10;;;;;;;;;;5059266;28;20677;-84
2021/09/20 08:43:37;;;;;;;2.08;0.52;;;;;;;;;;5062925;28;20056;-84
2021/09/20 08:46:03;;;;;;;;;;;;;;;;;;5062267;28;20097;-84
2021/09/20 08:48:32;;;;;;;0.10;0.10;;;;;;;;;;5059880;28;19964;-83
2021/09/20 08:50:58;;;;;;;0.00;0.00;;;;;;;;;;5058554;28;20410;-84
2021/09/20 08:53:24;;;;;;;0.00;0.00;;;;;;;;;;5059186;28;20039;-85
2021/09/20 08:55:50;;;;;;;0.00;0.00;;;;;;;;;;5043917;28;20071;-84
2021/09/20 08:58:17;;;;;;;0.00;0.00;;;;;;;;;;5061807;28;20329;-84
2021/09/20 09:00:42;;;;;;;0.00;0.00;;;;;;;;;;5061601;28;20461;-83
2021/09/20 09:03:08;;;;;;;0.08;0.08;;;;;;;;;;5058885;28;20063;-84
2021/09/20 09:05:35;;;;;;;0.00;0.00;;;;;;;;;;5056771;28;20036;-83
2021/09/20 09:08:02;;;;;;;0.00;0.00;;;;;;;;;;5047182;28;20102;-84
2021/09/20 09:10:29;;;;;;;0.00;0.00;;;;;;;;;;5047478;28;20036;-83
2021/09/20 09:12:56;;;;;;;0.00;0.00;;;;;;;;;;5061116;28;20071;-83
2021/09/20 09:15:23;;;;;;;0.00;0.00;;;;;;;;;;5058464;28;20131;-84
2021/09/20 09:17:53;;;;;;;0.00;0.00;;;;;;;;;;5058243;28;20032;-83
2021/09/20 09:20:24;;;;;;;0.00;0.00;;;;;;;;;;5058040;28;20037;-83
2021/09/20 09:22:52;;;;;;;0.00;0.00;;;;;;;;;;5043581;28;20029;-83
2021/09/20 09:25:23;;;;;;;0.00;0.00;;;;;;;;;;5062045;28;20560;-83
2021/09/20 09:27:50;;;;;;;0.00;0.00;;;;;;;;;;5060556;28;20078;-83
2021/09/20 09:30:24;;;;;;;0.00;0.00;;;;;;;;;;5041774;28;20791;-83
2021/09/20 09:33:03;;;;;;;0.00;0.00;;;;;;;;;;5058326;28;20024;-82
2021/09/20 09:35:30;;;;;;;0.00;0.00;;;;;;;;;;5058467;28;20093;-83
2021/09/20 09:38:00;;;;;;;0.00;0.00;;;;;;;;;;5042267;28;20035;-83
2021/09/20 09:40:26;;;;;;;0.00;0.00;;;;;;;;;;5062619;28;20134;-82
2021/09/20 09:42:58;;;;;;;0.00;0.00;;;;;;;;;;5060993;28;20020;-83
2021/09/20 09:45:26;;;;;;;0.00;0.00;;;;;;;;;;5057682;28;20043;-83
2021/09/20 09:48:05;;;;;;;0.00;0.00;;;;;;;;;;5057916;28;20604;-83
2021/09/20 09:50:32;;;;;;;0.00;0.00;;;;;;;;;;5057630;28;20032;-83
2021/09/20 09:52:58;;;;;;;0.00;0.00;;;;;;;;;;5058579;28;20047;-83
2021/09/20 09:55:25;;;;;;;0.00;0.00;;;;;;;;;;5061637;28;20036;-84
2021/09/20 09:57:52;;;;;;;0.00;0.00;;;;;;;;;;5060016;28;20028;-83
2021/09/20 10:00:19;;;;;;;0.10;0.10;;;;;;;;;;5057920;28;20153;-82
2021/09/20 10:02:47;;;;;;;0.00;0.00;;;;;;;;;;5057400;28;20815;-83
2021/09/20 10:05:15;;;;;;;0.45;0.45;;;;;;;;;;5057258;28;20041;-82
2021/09/20 10:07:43;;;;;;;0.00;0.00;;;;;;;;;;5043458;28;20024;-83
2021/09/20 10:10:14;;;;;;;0.00;0.00;;;;;;;;;;5060258;28;20028;-83
2021/09/20 10:12:40;;;;;;;0.00;0.00;;;;;;;;;;5048512;28;20025;-83
2021/09/20 10:15:08;;;;;;;0.00;0.00;;;;;;;;;;5055341;28;20044;-83
2021/09/20 10:17:34;;;;;;;0.00;0.00;;;;;;;;;;5055473;28;20021;-83
2021/09/20 10:20:01;;;;;;;0.00;0.00;;;;;;;;;;5045930;28;20037;-83
2021/09/20 10:22:27;;;;;;;0.00;0.00;;;;;;;;;;5061733;28;20025;-82
2021/09/20 10:24:56;;;;;;;0.00;0.00;;;;;;;;;;5059443;28;20036;-83
2021/09/20 10:27:23;;;;;;;0.00;0.00;;;;;;;;;;5056949;28;20041;-83
2021/09/20 10:29:51;;;;;;;0.00;0.00;;;;;;;;;;5057202;28;20039;-83
2021/09/20 10:32:17;;;;;;;0.00;0.00;;;;;;;;;;5056885;28;20478;-82
2021/09/20 10:34:43;;;;;;;0.00;0.00;;;;;;;;;;5042858;28;20047;-83
2021/09/20 10:37:11;;;;;;;0.00;0.00;;;;;;;;;;5046358;28;20090;-83
2021/09/20 10:39:47;;;;;;;0.00;0.00;;;;;;;;;;5058780;28;20044;-83
2021/09/20 10:42:13;;;;;;;;;;;;;;;;;;5057386;28;20504;-84
2021/09/20 10:44:39;;;;;;;0.00;0.00;;;;;;;;;;5057479;28;19913;-84
2021/09/20 10:47:16;;;;;;;0.00;0.00;;;;;;;;;;5056870;28;20145;-84
2021/09/20 10:49:49;;;;;;;0.00;0.00;;;;;;;;;;5060167;28;20033;-83
2021/09/20 10:52:15;;;;;;;0.00;0.00;;;;;;;;;;5059933;28;20072;-84
2021/09/20 10:55:01;;;;;;;0.00;0.00;;;;;;;;;;5059733;28;20044;-84
2021/09/20 10:57:27;;;;;;;1.10;0.47;;;;;;;;;;5063330;28;20035;-83
2021/09/20 10:59:53;;;;;;;0.00;0.00;;;;;;;;;;5063933;28;20563;-84
2021/09/20 11:02:25;;;;;;;0.00;0.00;;;;;;;;;;5063735;28;20025;-83
2021/09/20 11:05:02;;;;;;;0.15;0.08;;;;;;;;;;5048776;28;20078;-83
2021/09/20 11:07:41;;;;;;;0.10;0.10;;;;;;;;;;5052222;28;20051;-83
2021/09/20 11:10:08;;;;;;;0.00;0.00;;;;;;;;;;5066409;28;20064;-83
2021/09/20 11:12:38;;;;;;;0.00;0.00;;;;;;;;;;5063528;28;20574;-83
2021/09/20 11:15:07;;;;;;;0.00;0.00;;;;;;;;;;5063420;28;20079;-83
2021/09/20 11:17:33;;;;;;;0.00;0.00;;;;;;;;;;5063369;28;20120;-83
2021/09/20 11:20:00;;;;;;;0.00;0.00;;;;;;;;;;5064204;28;20436;-83
2021/09/20 11:22:28;;;;;;;0.00;0.00;;;;;;;;;;5067531;28;20547;-83
2021/09/20 11:24:54;;;;;;;0.00;0.00;;;;;;;;;;5065956;28;20028;-83
2021/09/20 11:27:31;;;;;;;0.00;0.00;;;;;;;;;;5063335;28;20107;-84
2021/09/20 11:30:03;;;;;;;0.00;0.00;;;;;;;;;;5063379;28;20133;-83
2021/09/20 11:32:29;;;;;;;0.30;0.30;;;;;;;;;;5062943;28;20027;-84
2021/09/20 11:34:56;;;;;;;0.00;0.00;;;;;;;;;;5064112;28;20493;-83
2021/09/20 11:37:23;;;;;;;0.00;0.00;;;;;;;;;;5066972;28;20024;-83
2021/09/20 11:39:52;;;;;;;0.00;0.00;;;;;;;;;;5065428;28;20178;-84
2021/09/20 11:42:19;;;;;;;0.17;0.17;;;;;;;;;;5062948;28;20032;-84
2021/09/20 11:44:59;;;;;;;0.00;0.00;;;;;;;;;;5062977;28;20035;-84
2021/09/20 11:47:27;;;;;;;0.00;0.00;;;;;;;;;;5063055;28;20499;-83
2021/09/20 11:50:01;;;;;;;0.00;0.00;;;;;;;;;;5064774;28;20622;-83
2021/09/20 11:52:35;;;;;;;0.10;0.10;;;;;;;;;;5067294;28;20080;-84
2021/09/20 11:55:01;;;;;;;0.00;0.00;;;;;;;;;;5065498;28;20047;-83
2021/09/20 11:57:30;;;;;;;0.00;0.00;;;;;;;;;;5063422;28;20501;-83
2021/09/20 11:59:58;;;;;;;0.00;0.00;;;;;;;;;;5046219;28;20847;-83
2021/09/20 12:02:30;;;;;;;0.00;0.00;;;;;;;;;;5063104;28;20064;-84
2021/09/20 12:04:56;;;;;;;0.10;0.10;;;;;;;;;;5047225;28;20683;-83
2021/09/20 12:07:26;;;;;;;0.00;0.00;;;;;;;;;;5065561;28;20029;-84
2021/09/20 12:09:52;;;;;;;0.00;0.00;;;;;;;;;;5062389;28;20029;-85
2021/09/20 12:12:18;;;;;;;0.00;0.00;;;;;;;;;;5059542;28;20106;-83
2021/09/20 12:14:55;;;;;;;0.00;0.00;;;;;;;;;;5042691;28;20048;-84
2021/09/20 12:17:22;;;;;;;0.00;0.00;;;;;;;;;;5060076;28;20048;-84
2021/09/20 12:19:52;;;;;;;0.00;0.00;;;;;;;;;;5061893;28;20760;-83
2021/09/20 12:22:18;;;;;;;0.08;0.08;;;;;;;;;;5062651;28;20031;-83
2021/09/20 12:24:44;;;;;;;0.00;0.00;;;;;;;;;;5061824;28;20259;-84
2021/09/20 12:27:12;;;;;;;0.00;0.00;;;;;;;;;;5059446;28;20040;-83
2021/09/20 12:29:38;;;;;;;0.00;0.00;;;;;;;;;;5059204;28;20029;-83
2021/09/20 12:32:05;;;;;;;0.00;0.00;;;;;;;;;;5042899;28;20021;-83
2021/09/20 12:34:35;;;;;;;0.00;0.00;;;;;;;;;;5063734;28;20063;-82
2021/09/20 12:37:03;;;;;;;0.00;0.00;;;;;;;;;;5062017;28;20427;-83
2021/09/20 12:39:32;;;;;;;0.00;0.00;;;;;;;;;;5051235;28;20047;-83
2021/09/20 12:42:01;;;;;;;0.00;0.00;;;;;;;;;;5055622;28;20117;-82
2021/09/20 12:44:29;;;;;;;0.00;0.00;;;;;;;;;;5058752;28;20063;-85
2021/09/20 12:47:14;;;;;;;0.00;0.00;;;;;;;;;;5060413;28;20052;-83
2021/09/20 12:49:41;;;;;;;0.00;0.00;;;;;;;;;;5048349;28;20644;-84
2021/09/20 12:52:27;;;;;;;0.00;0.00;;;;;;;;;;5061936;28;20048;-83
2021/09/20 12:54:53;;;;;;;0.00;0.00;;;;;;;;;;5061429;28;20056;-83
2021/09/20 12:57:24;;;;;;;0.00;0.00;;;;;;;;;;5058873;28;20412;-85
2021/09/20 13:00:19;;;;;;;0.00;0.00;;;;;;;;;;5059092;28;20032;-83
2021/09/20 13:02:45;;;;;;;0.00;0.00;;;;;;;;;;5041669;28;20036;-83
2021/09/20 13:05:12;;;;;;;0.00;0.00;;;;;;;;;;5042101;28;20274;-84
2021/09/20 13:07:38;;;;;;;0.00;0.00;;;;;;;;;;5062531;28;20099;-83
2021/09/20 13:10:27;;;;;;;0.10;0.10;;;;;;;;;;5061687;28;20796;-83
2021/09/20 13:12:54;;;;;;;0.10;0.10;;;;;;;;;;5049081;28;20032;-82
2021/09/20 13:15:20;;;;;;;;;;;;;;;;;;5058078;28;20459;-83
2021/09/20 13:17:49;;;;;;;0.08;0.08;;;;;;;;;;5058663;28;19913;-83
2021/09/20 13:20:24;;;;;;;0.40;0.35;;;;;;;;;;5057756;28;20021;-83
2021/09/20 13:22:52;;;;;;;0.00;0.00;;;;;;;;;;5061241;28;20029;-83
2021/09/20 13:25:23;;;;;;;0.00;0.00;;;;;;;;;;5046648;28;20029;-84
2021/09/20 13:27:50;;;;;;;0.00;0.00;;;;;;;;;;5060251;28;20032;-83
2021/09/20 13:30:19;;;;;;;0.00;0.00;;;;;;;;;;5058326;28;20059;-83
2021/09/20 13:32:45;;;;;;;0.22;0.22;;;;;;;;;;5054799;28;20029;-84
2021/09/20 13:35:21;;;;;;;0.00;0.00;;;;;;;;;;5048240;28;20045;-84
2021/09/20 13:37:47;;;;;;;0.00;0.00;;;;;;;;;;5060222;28;20028;-83
2021/09/20 13:40:14;;;;;;;0.00;0.00;;;;;;;;;;5059495;28;20754;-84
2021/09/20 13:42:40;;;;;;;0.00;0.00;;;;;;;;;;5059895;28;20037;-84
2021/09/20 13:45:06;;;;;;;0.10;0.10;;;;;;;;;;5058031;28;20039;-84
2021/09/20 13:47:32;;;;;;;0.00;0.00;;;;;;;;;;5058439;28;20074;-83
2021/09/20 13:49:59;;;;;;;0.00;0.00;;;;;;;;;;5059001;28;20639;-84
2021/09/20 13:52:26;;;;;;;0.32;0.32;;;;;;;;;;5061938;28;20045;-84
2021/09/20 13:54:53;;;;;;;0.00;0.00;;;;;;;;;;5027421;28;20548;-84
2021/09/20 13:57:19;;;;;;;0.00;0.00;;;;;;;;;;5049342;28;20520;-83
2021/09/20 13:59:45;;;;;;;0.00;0.00;;;;;;;;;;5052407;28;20756;-83
2021/09/20 14:02:11;;;;;;;0.00;0.00;;;;;;;;;;5044387;28;20493;-83
2021/09/20 14:04:37;;;;;;;0.00;0.00;;;;;;;;;;5029954;28;20025;-84
2021/09/20 14:07:03;;;;;;;0.00;0.00;;;;;;;;;;5060238;28;20037;-84
2021/09/20 14:09:29;;;;;;;0.00;0.00;;;;;;;;;;5049708;28;20159;-83
2021/09/20 14:11:55;;;;;;;0.00;0.00;;;;;;;;;;5053642;28;20032;-83
2021/09/20 14:14:21;;;;;;;0.00;0.00;;;;;;;;;;5057936;28;20033;-83
2021/09/20 14:16:49;;;;;;;0.00;0.00;;;;;;;;;;5059857;28;20043;-83
2021/09/20 14:19:15;;;;;;;0.00;0.00;;;;;;;;;;5060455;28;20286;-83
2021/09/20 14:21:42;;;;;;;0.10;0.10;;;;;;;;;;5048872;28;20025;-83
2021/09/20 14:24:08;;;;;;;0.00;0.00;;;;;;;;;;5038254;28;20523;-83
2021/09/20 14:26:34;;;;;;;0.00;0.00;;;;;;;;;;5057227;28;20028;-85
2021/09/20 14:29:00;;;;;;;0.20;0.20;;;;;;;;;;5058033;28;20274;-84
2021/09/20 14:31:26;;;;;;;0.00;0.00;;;;;;;;;;5061166;28;20043;-84
2021/09/20 14:33:52;;;;;;;0.00;0.00;;;;;;;;;;5060032;28;20829;-84
2021/09/20 14:36:18;;;;;;;0.00;0.00;;;;;;;;;;5057173;28;20062;-83
2021/09/20 14:38:44;;;;;;;0.10;0.10;;;;;;;;;;5057428;28;20025;-83
2021/09/20 14:41:10;;;;;;;0.10;0.10;;;;;;;;;;5057144;28;20041;-84
2021/09/20 14:43:37;;;;;;;0.10;0.10;;;;;;;;;;5061241;28;20032;-83
2021/09/20 14:46:06;;;;;;;0.00;0.00;;;;;;;;;;5060150;28;20241;-84